Meteo Giornale » Osservazioni meteo Italia » Catania-Sigonella

ore: 08:55 - Osservazioni Meteo Catania-Sigonella
Lat. 37° 24' N Lon. 14° 55' E Alt. 22 metri s.l.m.

poco_nuvoloso Europe/Rome

16 °C

Poco Nuvoloso

Temp. 24 Ore

9 °C

25 °C

Nord

1.8 Km/h

Dew point 14 °C

Umidità 87 %

Visibilità  10 Km

Il sole sorge alle ore 06:13

Il sole tramonta alle ore 19:44

Data e Ora Cielo e Fenomeni T °C DP °C Um. % Pres. hPa Vis. km Vento km/h
Oggi h: 08:55 poco_nuvoloso Poco Nuvoloso 16 14 87 1019 10 N 1.8
Oggi h: 07:55 poco_nuvoloso Poco Nuvoloso 12 12 100 1019 10 N 5.5
Oggi h: 06:55 sereno Sereno 9 9 100 1018 10 N 5.5
Oggi h: 04:55 sereno Sereno 11 11 100 1018 10 O/SO 7.4
Oggi h: 03:55 sereno Sereno 11 11 100 1018 10 O/SO 9.3
Oggi h: 02:55 sereno Sereno 11 11 100 1018 10 O 9.3
Oggi h: 01:55 sereno Sereno 12 12 100 1019 10 O/SO 9.3
Oggi h: 00:55 sereno Sereno 12 11 93 1019 10 O/SO 7.4
Ieri h: 23:55 sereno Sereno 16 16 100 1019 10 O/NO 7.4
Ieri h: 22:55 sereno Sereno 15 15 100 1019 10 O/SO 7.4
Ieri h: 21:55 sereno Sereno 14 14 100 1019 10 O 7.4
Ieri h: 20:55 sereno Sereno 16 15 93 1018 10 O 9.3
Ieri h: 19:55 nuvoloso Nuvoloso 17 13 77 1018 10 O/SO 9.3
Ieri h: 18:55 nuvoloso Nuvoloso 19 13 68 1018 10 O/SO 11.1
Ieri h: 17:55 nuvoloso Nuvoloso 19 12 63 1019 10 O 16.7
Ieri h: 16:55 nuvoloso Nuvoloso 19 14 72 1019 10 O 16.7
Ieri h: 15:55 molto_nuvoloso Molto Nuvoloso 19 13 68 1019 10 O 24
Ieri h: 14:55 nuvoloso Nuvoloso 21 17 77 1019 10 E 11.1
Ieri h: 14:05 coperto_temporali Temporale 23 15 60 1019 10 E/NE 18.5
Ieri h: 13:55 nuvoloso Nuvoloso 23 15 60 1019 10 E 22.2
Ieri h: 12:55 coperto_temporali Temporale 25 15 53 1019 10 E 13
Ieri h: 11:55 nuvoloso Nuvoloso 23 15 60 1019 10 E 16.7
Ieri h: 10:55 poco_nuvoloso Poco Nuvoloso 22 15 64 1019 10 E 14.8
Ieri h: 09:55 poco_nuvoloso Poco Nuvoloso 21 16 73 1019 10 E 7.4